Time;durP1;ratioP1;P1;durP2;ratioP2;P2;SDS_P1;SDS_P2;PMS_P1;PMS_P2;Temp;Humidity;BMP_temperature;BMP_pressure;BME280_temperature;BME280_humidity;BME280_pressure;Samples;Min_cycle;Max_cycle;Signal;HPM_P1;HPM_P2
2023/06/30 00:01:24;;;;;;;;;;;23.60;58.10;;;;;;5037812;28;19927;-60
2023/06/30 00:03:50;;;;;;;;;;;23.60;58.10;;;;;;5041733;28;19986;-60
2023/06/30 00:06:17;;;;;;;;;;;23.60;58.10;;;;;;5074147;28;19932;-61
2023/06/30 00:08:44;;;;;;;;;;;23.60;58.10;;;;;;5078045;28;19920;-61
2023/06/30 00:11:11;;;;;;;;;;;23.60;58.10;;;;;;5077899;28;19973;-60
2023/06/30 00:13:40;;;;;;;;;;;23.60;58.00;;;;;;5048310;28;19930;-61
2023/06/30 00:16:08;;;;;;;;;;;23.50;57.90;;;;;;5042743;28;19921;-61
2023/06/30 00:18:35;;;;;;;;;;;23.50;57.90;;;;;;5057362;28;19940;-62
2023/06/30 00:21:03;;;;;;;;;;;23.50;57.80;;;;;;5041981;28;19921;-60
2023/06/30 00:23:30;;;;;;;;;;;23.50;57.70;;;;;;5056792;28;19948;-58
2023/06/30 00:25:57;;;;;;;;;;;23.50;57.60;;;;;;5050076;28;19920;-60
2023/06/30 00:28:24;;;;;;;;;;;23.50;57.50;;;;;;5053275;28;19975;-60
2023/06/30 00:30:51;;;;;;;;;;;23.50;57.40;;;;;;5055663;28;20850;-62
2023/06/30 00:33:20;;;;;;;;;;;23.40;57.20;;;;;;5058870;28;19925;-59
2023/06/30 00:35:47;;;;;;;;;;;23.40;57.10;;;;;;5076098;28;19924;-60
2023/06/30 00:38:14;;;;;;;;;;;23.40;57.10;;;;;;5064041;28;19927;-61
2023/06/30 00:40:41;;;;;;;;;;;23.40;57.00;;;;;;5059980;28;19921;-60
2023/06/30 00:43:08;;;;;;;;;;;23.40;57.00;;;;;;5062558;28;19924;-59
2023/06/30 00:45:37;;;;;;;;;;;23.40;57.00;;;;;;5048530;28;19932;-60
2023/06/30 00:48:04;;;;;;;;;;;23.40;56.90;;;;;;5060519;28;19943;-61
2023/06/30 00:50:32;;;;;;;;;;;23.40;56.90;;;;;;5057960;28;19921;-62
2023/06/30 00:52:59;;;;;;;;;;;23.40;56.90;;;;;;5062595;28;19920;-60
2023/06/30 00:55:26;;;;;;;;;;;23.40;56.90;;;;;;5062299;28;19970;-59
2023/06/30 00:57:53;;;;;;;;;;;23.30;56.80;;;;;;5061056;28;19927;-61
2023/06/30 01:00:20;;;;;;;;;;;23.40;56.90;;;;;;5079108;28;19925;-60
2023/06/30 01:02:50;;;;;;;;;;;23.40;56.80;;;;;;5061667;28;19920;-61
2023/06/30 01:05:18;;;;;;;;;;;23.30;56.70;;;;;;5078628;28;19921;-60
2023/06/30 01:07:48;;;;;;;;;;;23.40;56.80;;;;;;5043059;28;20398;-59
2023/06/30 01:10:15;;;;;;;;;;;23.30;56.70;;;;;;5036729;28;19928;-60
2023/06/30 01:12:42;;;;;;;;;;;23.30;56.60;;;;;;5039233;28;19921;-61
2023/06/30 01:15:13;;;;;;;;;;;23.30;56.60;;;;;;5061036;28;19920;-60
2023/06/30 01:17:43;;;;;;;;;;;23.30;56.50;;;;;;5059978;28;20274;-61
2023/06/30 01:20:11;;;;;;;;;;;23.30;56.50;;;;;;5061853;28;19927;-60
2023/06/30 01:22:40;;;;;;;;;;;23.30;56.50;;;;;;5059561;28;20425;-61
2023/06/30 01:25:12;;;;;;;;;;;23.30;56.50;;;;;;5060135;28;19927;-61
2023/06/30 01:27:38;;;;;;;;;;;23.30;56.50;;;;;;5052508;28;19921;-61
2023/06/30 01:30:06;;;;;;;;;;;23.30;56.50;;;;;;5059604;28;19988;-60
2023/06/30 01:32:33;;;;;;;;;;;23.30;56.50;;;;;;5038329;28;19921;-61
2023/06/30 01:35:00;;;;;;;;;;;23.30;56.50;;;;;;5039684;28;19927;-61
2023/06/30 01:37:27;;;;;;;;;;;23.30;56.40;;;;;;5054324;28;20015;-61
2023/06/30 01:39:54;;;;;;;;;;;23.20;56.40;;;;;;5039805;28;19920;-60
2023/06/30 01:42:22;;;;;;;;;;;23.20;56.30;;;;;;5041046;28;19928;-60
2023/06/30 01:44:48;;;;;;;;;;;23.20;56.40;;;;;;5041934;28;19924;-60
2023/06/30 01:47:16;;;;;;;;;;;23.20;56.40;;;;;;5037283;28;19925;-59
2023/06/30 01:49:43;;;;;;;;;;;23.20;56.30;;;;;;5024296;28;19921;-60
2023/06/30 01:52:09;;;;;;;;;;;23.20;56.30;;;;;;5040190;28;19920;-61
2023/06/30 01:54:36;;;;;;;;;;;23.20;56.30;;;;;;5056992;28;19920;-61
2023/06/30 01:57:03;;;;;;;;;;;23.20;56.30;;;;;;5041908;28;19924;-61
2023/06/30 01:59:31;;;;;;;;;;;23.20;56.30;;;;;;5059895;28;19921;-60
2023/06/30 02:01:58;;;;;;;;;;;23.20;56.20;;;;;;5039722;28;19935;-58
2023/06/30 02:04:43;;;;;;;;;;;23.20;56.20;;;;;;5057478;28;19928;-59
2023/06/30 02:07:10;;;;;;;;;;;23.20;56.20;;;;;;5040762;28;20405;-61
2023/06/30 02:09:37;;;;;;;;;;;23.10;56.10;;;;;;5041137;28;19920;-60
2023/06/30 02:12:04;;;;;;;;;;;23.10;56.10;;;;;;5035661;28;19927;-60
2023/06/30 02:14:32;;;;;;;;;;;23.10;56.10;;;;;;5066343;28;19924;-60
2023/06/30 02:16:59;;;;;;;;;;;23.10;56.10;;;;;;5071311;28;19948;-61
2023/06/30 02:19:29;;;;;;;;;;;23.10;56.10;;;;;;5054652;28;19920;-61
2023/06/30 02:21:56;;;;;;;;;;;23.10;56.00;;;;;;5039738;28;19921;-60
2023/06/30 02:24:23;;;;;;;;;;;23.10;56.00;;;;;;5050412;28;19921;-61
2023/06/30 02:26:49;;;;;;;;;;;23.10;56.00;;;;;;5041624;28;19929;-59
2023/06/30 02:29:16;;;;;;;;;;;23.10;56.00;;;;;;5069202;28;19990;-60
2023/06/30 02:31:44;;;;;;;;;;;23.10;56.00;;;;;;5039590;28;19928;-58
2023/06/30 02:34:11;;;;;;;;;;;23.10;56.00;;;;;;5032456;28;19974;-59
2023/06/30 02:36:38;;;;;;;;;;;23.10;56.00;;;;;;5050535;28;19921;-60
2023/06/30 02:39:05;;;;;;;;;;;23.10;56.00;;;;;;5038561;28;19927;-60
2023/06/30 02:41:31;;;;;;;;;;;23.10;56.00;;;;;;5054417;28;19943;-59
2023/06/30 02:43:58;;;;;;;;;;;23.10;55.90;;;;;;5055513;28;19921;-61
2023/06/30 02:46:25;;;;;;;;;;;23.10;55.90;;;;;;5039410;28;19924;-60
2023/06/30 02:48:53;;;;;;;;;;;23.00;55.80;;;;;;5040933;28;19921;-58
2023/06/30 02:51:20;;;;;;;;;;;23.10;55.80;;;;;;5037843;28;19931;-59
2023/06/30 02:53:47;;;;;;;;;;;23.10;55.80;;;;;;5037460;28;19924;-60
2023/06/30 02:56:14;;;;;;;;;;;23.00;55.70;;;;;;5045547;28;20359;-60
2023/06/30 02:58:40;;;;;;;;;;;23.00;55.70;;;;;;5050934;28;19931;-59
2023/06/30 03:01:07;;;;;;;;;;;23.00;56.20;;;;;;5046966;28;19920;-59
2023/06/30 03:03:35;;;;;;;;;;;23.00;55.70;;;;;;5062197;28;19921;-60
2023/06/30 03:06:05;;;;;;;;;;;23.00;55.60;;;;;;5040438;28;19921;-61
2023/06/30 03:08:31;;;;;;;;;;;23.00;55.70;;;;;;5035806;28;19920;-59
2023/06/30 03:10:58;;;;;;;;;;;23.00;55.60;;;;;;5053251;28;19920;-60
2023/06/30 03:13:25;;;;;;;;;;;23.00;55.70;;;;;;5055154;28;19921;-61
2023/06/30 03:15:51;;;;;;;;;;;23.00;55.70;;;;;;5056512;28;19928;-60
2023/06/30 03:18:18;;;;;;;;;;;23.00;55.60;;;;;;5038315;28;19920;-60
2023/06/30 03:20:45;;;;;;;;;;;22.90;55.50;;;;;;5046871;28;19921;-60
2023/06/30 03:23:14;;;;;;;;;;;22.90;55.50;;;;;;5042046;28;19993;-61
2023/06/30 03:25:41;;;;;;;;;;;22.90;55.50;;;;;;5050555;28;19920;-62
2023/06/30 03:28:08;;;;;;;;;;;22.90;55.50;;;;;;5044587;28;20345;-59
2023/06/30 03:30:34;;;;;;;;;;;22.90;55.50;;;;;;5041931;28;19970;-60
2023/06/30 03:33:01;;;;;;;;;;;22.90;55.50;;;;;;5028783;28;19928;-59
2023/06/30 03:35:28;;;;;;;;;;;22.90;55.50;;;;;;5038919;28;19925;-59
2023/06/30 03:37:55;;;;;;;;;;;22.90;55.50;;;;;;5037485;28;19921;-61
2023/06/30 03:40:23;;;;;;;;;;;22.90;55.60;;;;;;5037815;28;19924;-60
2023/06/30 03:42:49;;;;;;;;;;;22.90;55.50;;;;;;5050891;28;20421;-61
2023/06/30 03:45:16;;;;;;;;;;;22.90;55.50;;;;;;5037601;28;19920;-59
2023/06/30 03:47:43;;;;;;;;;;;22.90;55.50;;;;;;5041458;28;20308;-60
2023/06/30 03:50:10;;;;;;;;;;;22.90;55.60;;;;;;5046398;28;19921;-61
2023/06/30 03:52:38;;;;;;;;;;;22.90;55.60;;;;;;5043067;28;19964;-60
2023/06/30 03:55:05;;;;;;;;;;;22.90;55.60;;;;;;5049026;28;19924;-61
2023/06/30 03:57:33;;;;;;;;;;;22.90;55.60;;;;;;5037438;28;19987;-60
2023/06/30 04:00:00;;;;;;;;;;;22.90;55.70;;;;;;5039956;28;19929;-60
2023/06/30 04:02:27;;;;;;;;;;;22.90;55.70;;;;;;5055679;28;19925;-60
2023/06/30 04:04:54;;;;;;;;;;;22.90;55.70;;;;;;5057356;28;19928;-61
2023/06/30 04:07:21;;;;;;;;;;;22.90;55.70;;;;;;5042457;28;19924;-58
2023/06/30 04:09:47;;;;;;;;;;;22.90;55.70;;;;;;5058156;28;20359;-59
2023/06/30 04:12:14;;;;;;;;;;;22.90;55.70;;;;;;5040705;28;19920;-58
2023/06/30 04:14:43;;;;;;;;;;;22.90;55.70;;;;;;5042705;28;19971;-60
2023/06/30 04:17:10;;;;;;;;;;;22.90;55.70;;;;;;5043174;28;19966;-61
2023/06/30 04:19:36;;;;;;;;;;;22.90;55.70;;;;;;5041827;28;19979;-61
2023/06/30 04:22:04;;;;;;;;;;;22.90;55.80;;;;;;5041193;28;19927;-61
2023/06/30 04:24:30;;;;;;;;;;;22.90;55.80;;;;;;5037464;28;19925;-60
2023/06/30 04:26:57;;;;;;;;;;;22.90;55.80;;;;;;5042083;28;19921;-61
2023/06/30 04:29:24;;;;;;;;;;;22.90;55.80;;;;;;5042076;28;19921;-60
2023/06/30 04:31:52;;;;;;;;;;;22.90;55.80;;;;;;5048837;28;19924;-60
2023/06/30 04:34:20;;;;;;;;;;;22.90;55.90;;;;;;5060495;28;19974;-62
2023/06/30 04:36:49;;;;;;;;;;;22.90;55.80;;;;;;5060452;28;19920;-61
2023/06/30 04:39:16;;;;;;;;;;;22.90;55.90;;;;;;5060261;28;19920;-62
2023/06/30 04:41:42;;;;;;;;;;;22.90;55.90;;;;;;5060271;28;19970;-60
2023/06/30 04:44:09;;;;;;;;;;;22.90;55.90;;;;;;5057500;28;19920;-60
2023/06/30 04:46:36;;;;;;;;;;;22.90;55.90;;;;;;5079492;28;19920;-58
2023/06/30 04:49:05;;;;;;;;;;;22.90;56.00;;;;;;5055450;28;19948;-59
2023/06/30 04:51:31;;;;;;;;;;;22.90;55.90;;;;;;5039847;28;19943;-61
2023/06/30 04:54:00;;;;;;;;;;;22.90;55.90;;;;;;5020379;28;19929;-60
2023/06/30 04:56:26;;;;;;;;;;;22.90;55.90;;;;;;5022254;28;19921;-60
2023/06/30 04:58:53;;;;;;;;;;;22.90;56.00;;;;;;5058924;28;19921;-60
2023/06/30 05:01:20;;;;;;;;;;;22.90;56.00;;;;;;5061132;28;20023;-59
2023/06/30 05:03:47;;;;;;;;;;;22.90;56.00;;;;;;5041526;28;19971;-59
2023/06/30 05:06:16;;;;;;;;;;;22.90;56.00;;;;;;5039349;28;19921;-61
2023/06/30 05:08:43;;;;;;;;;;;22.90;56.10;;;;;;5042365;28;19924;-60
2023/06/30 05:11:10;;;;;;;;;;;22.90;56.10;;;;;;5042613;28;19943;-59
2023/06/30 05:13:37;;;;;;;;;;;22.90;56.10;;;;;;5058833;28;19943;-60
2023/06/30 05:16:04;;;;;;;;;;;22.90;56.10;;;;;;5060621;28;19921;-60
2023/06/30 05:18:31;;;;;;;;;;;22.90;56.20;;;;;;5026121;28;19924;-59
2023/06/30 05:20:57;;;;;;;;;;;22.90;56.20;;;;;;5043862;28;19990;-60
2023/06/30 05:23:26;;;;;;;;;;;22.90;56.20;;;;;;5040809;28;19921;-62
2023/06/30 05:25:53;;;;;;;;;;;22.90;56.30;;;;;;5064473;28;19920;-60
2023/06/30 05:28:20;;;;;;;;;;;22.90;56.30;;;;;;5054419;28;19928;-60
2023/06/30 05:30:47;;;;;;;;;;;22.90;56.40;;;;;;5042197;28;20299;-61
2023/06/30 05:33:13;;;;;;;;;;;22.90;56.40;;;;;;5038164;28;19929;-59
2023/06/30 05:35:41;;;;;;;;;;;22.90;56.50;;;;;;5039890;28;19948;-61
2023/06/30 05:38:10;;;;;;;;;;;22.90;56.60;;;;;;5055753;28;19921;-60
2023/06/30 05:40:40;;;;;;;;;;;22.90;56.60;;;;;;5039670;28;19920;-61
2023/06/30 05:43:07;;;;;;;;;;;22.90;56.60;;;;;;5040753;28;19947;-60
2023/06/30 05:45:34;;;;;;;;;;;22.90;56.70;;;;;;5041962;28;19924;-60
2023/06/30 05:48:01;;;;;;;;;;;22.90;56.70;;;;;;5042412;28;19921;-60
2023/06/30 05:50:29;;;;;;;;;;;22.90;56.70;;;;;;5040243;28;19921;-60
2023/06/30 05:52:56;;;;;;;;;;;22.90;56.70;;;;;;5060588;28;19921;-60
2023/06/30 05:55:23;;;;;;;;;;;22.90;56.70;;;;;;5043338;28;19921;-59
2023/06/30 05:57:51;;;;;;;;;;;22.90;56.80;;;;;;5042139;28;19921;-60
2023/06/30 06:00:18;;;;;;;;;;;22.90;56.80;;;;;;5040714;28;19925;-61
2023/06/30 06:02:45;;;;;;;;;;;22.90;56.80;;;;;;5037320;28;19921;-60
2023/06/30 06:05:12;;;;;;;;;;;22.90;56.80;;;;;;5042240;28;20353;-61
2023/06/30 06:07:40;;;;;;;;;;;22.90;56.80;;;;;;5040857;28;19920;-61
2023/06/30 06:10:08;;;;;;;;;;;22.90;56.80;;;;;;5042366;28;19927;-59
2023/06/30 06:12:36;;;;;;;;;;;22.90;56.80;;;;;;5040232;28;19928;-58
2023/06/30 06:15:05;;;;;;;;;;;22.90;56.80;;;;;;5021727;28;19927;-62
2023/06/30 06:17:34;;;;;;;;;;;22.90;56.80;;;;;;5013703;28;19921;-61
2023/06/30 06:20:00;;;;;;;;;;;22.90;56.90;;;;;;5018061;28;19971;-61
2023/06/30 06:22:27;;;;;;;;;;;22.90;56.90;;;;;;5022446;28;19921;-61
2023/06/30 06:24:54;;;;;;;;;;;22.90;56.90;;;;;;5015426;28;19943;-60
2023/06/30 06:27:21;;;;;;;;;;;22.90;56.90;;;;;;5039751;28;19928;-60
2023/06/30 06:29:48;;;;;;;;;;;22.90;57.00;;;;;;5056975;28;19921;-59
2023/06/30 06:32:18;;;;;;;;;;;22.90;57.00;;;;;;5059147;28;19927;-61
2023/06/30 06:34:45;;;;;;;;;;;22.90;57.00;;;;;;5057024;28;20346;-60
2023/06/30 06:37:12;;;;;;;;;;;22.90;57.00;;;;;;5060218;28;19983;-60
2023/06/30 06:39:39;;;;;;;;;;;22.90;57.00;;;;;;5044433;28;19921;-58
2023/06/30 06:42:06;;;;;;;;;;;22.90;56.90;;;;;;5061006;28;19920;-61
2023/06/30 06:44:33;;;;;;;;;;;22.90;56.90;;;;;;5060252;28;20373;-60
2023/06/30 06:47:19;;;;;;;;;;;22.90;56.80;;;;;;5076584;28;19924;-61
2023/06/30 06:49:48;;;;;;;;;;;23.00;56.90;;;;;;5059076;28;19921;-60
2023/06/30 06:52:14;;;;;;;;;;;23.00;56.80;;;;;;5060691;28;19924;-60
2023/06/30 06:54:41;;;;;;;;;;;23.00;56.80;;;;;;5060642;28;19986;-60
2023/06/30 06:57:08;;;;;;;;;;;23.00;56.70;;;;;;5057995;28;19920;-58
2023/06/30 06:59:35;;;;;;;;;;;23.00;56.70;;;;;;5059019;28;19920;-60
2023/06/30 07:02:02;;;;;;;;;;;23.00;56.70;;;;;;5061252;28;19920;-60
2023/06/30 07:04:29;;;;;;;;;;;23.00;56.70;;;;;;5059843;28;19954;-58
2023/06/30 07:07:00;;;;;;;;;;;23.10;56.70;;;;;;5059790;28;19921;-59
2023/06/30 07:09:27;;;;;;;;;;;23.10;56.70;;;;;;5058897;28;19920;-58
2023/06/30 07:11:53;;;;;;;;;;;23.10;56.60;;;;;;5055356;28;19955;-58
2023/06/30 07:14:21;;;;;;;;;;;23.10;56.50;;;;;;5070005;28;19921;-57
2023/06/30 07:16:49;;;;;;;;;;;23.10;56.60;;;;;;5050155;28;20278;-57
2023/06/30 07:19:18;;;;;;;;;;;23.00;56.40;;;;;;5039774;28;19921;-58
2023/06/30 07:21:45;;;;;;;;;;;23.00;56.40;;;;;;5037579;28;19921;-58
2023/06/30 07:24:14;;;;;;;;;;;23.10;56.40;;;;;;5039032;28;19921;-59
2023/06/30 07:26:40;;;;;;;;;;;23.10;56.40;;;;;;5040117;28;20365;-59
2023/06/30 07:29:07;;;;;;;;;;;23.10;56.40;;;;;;5042945;28;20290;-58
2023/06/30 07:31:34;;;;;;;;;;;23.10;56.40;;;;;;5047047;28;19921;-57
2023/06/30 07:34:01;;;;;;;;;;;23.10;56.40;;;;;;5038365;28;19921;-59
2023/06/30 07:36:28;;;;;;;;;;;23.10;56.30;;;;;;5058615;28;19921;-59
2023/06/30 07:38:54;;;;;;;;;;;23.10;56.30;;;;;;5054453;28;19989;-58
2023/06/30 07:41:23;;;;;;;;;;;23.10;56.30;;;;;;5063276;28;19920;-60
2023/06/30 07:43:49;;;;;;;;;;;23.20;56.30;;;;;;5059967;28;19921;-59
2023/06/30 07:46:16;;;;;;;;;;;23.20;56.30;;;;;;5042777;28;19990;-60
2023/06/30 07:48:43;;;;;;;;;;;23.20;56.20;;;;;;5064343;28;19924;-58
2023/06/30 07:51:10;;;;;;;;;;;23.20;56.20;;;;;;5044598;28;20045;-58
2023/06/30 07:53:38;;;;;;;;;;;23.20;56.20;;;;;;5053444;28;19925;-58
2023/06/30 07:56:05;;;;;;;;;;;23.20;56.10;;;;;;5038343;28;19960;-60
2023/06/30 07:58:33;;;;;;;;;;;23.20;56.00;;;;;;5041141;28;20314;-59
2023/06/30 08:01:00;;;;;;;;;;;23.20;55.90;;;;;;5042486;28;19921;-59
2023/06/30 08:03:27;;;;;;;;;;;23.20;55.90;;;;;;5044645;28;19920;-58
2023/06/30 08:05:55;;;;;;;;;;;23.20;55.80;;;;;;5056464;28;19924;-58
2023/06/30 08:08:21;;;;;;;;;;;23.10;55.70;;;;;;5062384;28;20335;-60
2023/06/30 08:10:48;;;;;;;;;;;23.20;55.70;;;;;;5042063;28;19925;-60
2023/06/30 08:13:16;;;;;;;;;;;23.20;55.70;;;;;;5040991;28;19921;-60
2023/06/30 08:15:44;;;;;;;;;;;23.20;55.70;;;;;;5041500;28;20363;-61
2023/06/30 08:18:12;;;;;;;;;;;23.20;55.60;;;;;;5041285;28;19921;-60
2023/06/30 08:20:38;;;;;;;;;;;23.20;55.60;;;;;;5041916;28;19925;-61
2023/06/30 08:23:05;;;;;;;;;;;23.20;55.60;;;;;;5042287;28;19925;-60
2023/06/30 08:25:32;;;;;;;;;;;23.20;55.50;;;;;;5038495;28;19924;-61
2023/06/30 08:27:59;;;;;;;;;;;23.20;55.50;;;;;;5043403;28;19988;-59
2023/06/30 08:30:26;;;;;;;;;;;23.30;55.50;;;;;;5042705;28;19920;-61
2023/06/30 08:32:54;;;;;;;;;;;23.30;55.40;;;;;;5040187;28;19967;-60
2023/06/30 08:35:21;;;;;;;;;;;23.30;55.20;;;;;;5055638;28;20004;-60
2023/06/30 08:37:47;;;;;;;;;;;23.20;54.90;;;;;;5057335;28;20374;-59
2023/06/30 08:40:14;;;;;;;;;;;23.30;54.90;;;;;;5055024;28;19932;-58
2023/06/30 08:42:41;;;;;;;;;;;23.20;54.80;;;;;;5038129;28;19928;-60
2023/06/30 08:45:09;;;;;;;;;;;23.30;54.80;;;;;;5041283;28;20007;-60
2023/06/30 08:47:35;;;;;;;;;;;23.30;54.80;;;;;;5045311;28;19920;-60
2023/06/30 08:50:04;;;;;;;;;;;23.20;54.50;;;;;;5030624;28;19928;-60
2023/06/30 08:52:31;;;;;;;;;;;23.20;54.50;;;;;;5018956;28;19921;-58
2023/06/30 08:55:01;;;;;;;;;;;23.20;54.50;;;;;;5019322;28;19987;-60
2023/06/30 08:57:27;;;;;;;;;;;23.30;54.60;;;;;;5009623;28;19928;-60
2023/06/30 08:59:54;;;;;;;;;;;23.30;54.60;;;;;;5041097;28;19925;-59
2023/06/30 09:02:22;;;;;;;;;;;23.30;54.60;;;;;;5039734;28;20363;-59
2023/06/30 09:04:48;;;;;;;;;;;23.20;54.50;;;;;;5040439;28;19921;-56
2023/06/30 09:07:19;;;;;;;;;;;23.30;54.60;;;;;;5038626;28;19921;-59
2023/06/30 09:09:46;;;;;;;;;;;23.30;54.50;;;;;;5038167;28;19928;-60
2023/06/30 09:12:13;;;;;;;;;;;23.30;54.30;;;;;;5037693;28;20425;-60
2023/06/30 09:14:40;;;;;;;;;;;23.30;54.30;;;;;;5038432;28;19920;-60
2023/06/30 09:17:07;;;;;;;;;;;23.30;54.20;;;;;;5056265;28;19921;-59
2023/06/30 09:19:35;;;;;;;;;;;23.30;54.10;;;;;;5052265;28;19921;-58
2023/06/30 09:22:02;;;;;;;;;;;23.30;54.10;;;;;;5060586;28;19928;-60
2023/06/30 09:24:30;;;;;;;;;;;23.30;54.10;;;;;;5033374;28;20379;-60
2023/06/30 09:26:57;;;;;;;;;;;23.30;54.10;;;;;;5034398;28;19987;-58
2023/06/30 09:29:24;;;;;;;;;;;23.30;54.10;;;;;;5039881;28;20023;-59
2023/06/30 09:31:51;;;;;;;;;;;23.30;54.10;;;;;;5034041;28;19920;-56
2023/06/30 09:34:19;;;;;;;;;;;23.30;54.00;;;;;;5040969;28;19932;-58
2023/06/30 09:36:49;;;;;;;;;;;23.40;54.00;;;;;;5054180;28;20029;-59
2023/06/30 09:39:16;;;;;;;;;;;23.30;53.80;;;;;;5034634;28;19931;-59
2023/06/30 09:41:44;;;;;;;;;;;23.40;53.60;;;;;;5033335;28;19927;-58
2023/06/30 09:44:11;;;;;;;;;;;23.30;53.20;;;;;;5040432;28;19928;-57
2023/06/30 09:46:39;;;;;;;;;;;23.40;53.20;;;;;;5037477;28;19920;-58
2023/06/30 09:49:05;;;;;;;;;;;23.30;52.80;;;;;;5034340;28;19929;-58
2023/06/30 09:51:34;;;;;;;;;;;23.30;52.80;;;;;;5021502;28;19920;-59
2023/06/30 09:54:01;;;;;;;;;;;23.30;52.90;;;;;;5044442;28;19932;-62
2023/06/30 09:56:29;;;;;;;;;;;23.30;52.80;;;;;;5035252;28;20019;-59
2023/06/30 09:58:58;;;;;;;;;;;23.30;52.50;;;;;;5017508;28;19928;-60
2023/06/30 10:01:24;;;;;;;;;;;23.30;52.20;;;;;;5051874;28;19920;-60
2023/06/30 10:03:52;;;;;;;;;;;23.30;52.20;;;;;;5033431;28;19920;-61
2023/06/30 10:06:20;;;;;;;;;;;23.30;52.20;;;;;;5034195;28;19924;-59
2023/06/30 10:08:47;;;;;;;;;;;23.30;52.30;;;;;;5033751;28;20314;-60
2023/06/30 10:11:14;;;;;;;;;;;23.30;52.30;;;;;;5035302;28;19970;-58
2023/06/30 10:13:41;;;;;;;;;;;23.30;52.40;;;;;;5043942;28;19960;-61
2023/06/30 10:16:09;;;;;;;;;;;23.30;52.20;;;;;;5037403;28;19971;-58
2023/06/30 10:18:36;;;;;;;;;;;23.30;52.10;;;;;;5035149;28;19940;-58
2023/06/30 10:21:03;;;;;;;;;;;23.30;52.10;;;;;;5053552;28;19921;-56
2023/06/30 10:23:30;;;;;;;;;;;23.30;52.00;;;;;;5036406;28;19925;-59
2023/06/30 10:25:57;;;;;;;;;;;23.30;51.80;;;;;;5031618;28;19924;-57
2023/06/30 10:28:24;;;;;;;;;;;23.30;51.60;;;;;;5058173;28;19974;-59
2023/06/30 10:30:51;;;;;;;;;;;23.30;51.30;;;;;;5055755;28;20217;-59
2023/06/30 10:33:19;;;;;;;;;;;23.30;51.20;;;;;;5035183;28;20356;-60
2023/06/30 10:35:46;;;;;;;;;;;23.30;51.20;;;;;;5061013;28;19968;-57
2023/06/30 10:38:12;;;;;;;;;;;23.30;51.30;;;;;;5040342;28;19920;-58
2023/06/30 10:40:41;;;;;;;;;;;23.30;51.30;;;;;;5033160;28;19921;-55
2023/06/30 10:43:09;;;;;;;;;;;23.30;51.30;;;;;;5030918;28;19920;-59
2023/06/30 10:45:39;;;;;;;;;;;23.30;51.30;;;;;;5035886;28;19933;-58
2023/06/30 10:48:09;;;;;;;;;;;23.30;51.30;;;;;;5042282;28;19929;-57
2023/06/30 10:50:42;;;;;;;;;;;23.40;51.30;;;;;;5051263;28;19928;-57
2023/06/30 10:53:09;;;;;;;;;;;23.40;51.30;;;;;;5034900;28;19936;-58
2023/06/30 10:55:36;;;;;;;;;;;23.40;51.30;;;;;;5036969;28;19928;-59
2023/06/30 10:58:05;;;;;;;;;;;23.40;51.20;;;;;;5029928;28;19921;-60
2023/06/30 11:00:32;;;;;;;;;;;23.40;51.20;;;;;;5026628;28;19929;-58
2023/06/30 11:02:58;;;;;;;;;;;23.40;51.40;;;;;;5032958;28;19968;-56
2023/06/30 11:05:26;;;;;;;;;;;23.40;51.20;;;;;;5041878;28;19994;-59
2023/06/30 11:07:54;;;;;;;;;;;23.40;51.20;;;;;;5034295;28;19920;-57
2023/06/30 11:10:37;;;;;;;;;;;23.40;51.00;;;;;;5057022;28;19973;-58
2023/06/30 11:13:05;;;;;;;;;;;23.40;50.90;;;;;;5035327;28;19924;-58
2023/06/30 11:15:35;;;;;;;;;;;23.40;51.00;;;;;;5034782;28;20003;-58
2023/06/30 11:18:02;;;;;;;;;;;23.40;51.10;;;;;;5035152;28;19921;-58
2023/06/30 11:20:30;;;;;;;;;;;23.40;51.00;;;;;;5034810;28;19924;-58
2023/06/30 11:22:59;;;;;;;;;;;23.40;50.90;;;;;;5036584;28;19959;-58
2023/06/30 11:25:25;;;;;;;;;;;23.40;50.70;;;;;;5035142;28;20381;-57
2023/06/30 11:27:52;;;;;;;;;;;23.40;51.20;;;;;;5029855;28;19978;-58
2023/06/30 11:30:20;;;;;;;;;;;23.40;50.40;;;;;;5033669;28;19921;-58
2023/06/30 11:32:47;;;;;;;;;;;23.30;50.30;;;;;;5040630;28;19929;-58
2023/06/30 11:35:13;;;;;;;;;;;23.40;50.30;;;;;;5039543;28;19924;-58
2023/06/30 11:37:40;;;;;;;;;;;23.40;50.00;;;;;;5046036;28;19937;-58
2023/06/30 11:40:09;;;;;;;;;;;23.30;49.30;;;;;;5035335;28;19978;-58
2023/06/30 11:42:39;;;;;;;;;;;23.40;49.30;;;;;;5057736;28;19920;-57
2023/06/30 11:45:07;;;;;;;;;;;23.30;49.10;;;;;;5053197;28;19921;-57
2023/06/30 11:47:34;;;;;;;;;;;23.30;49.00;;;;;;5037413;28;20270;-58
2023/06/30 11:50:05;;;;;;;;;;;23.30;48.50;;;;;;5030114;28;20011;-58
2023/06/30 11:52:32;;;;;;;;;;;23.30;48.30;;;;;;5038961;28;19924;-59
2023/06/30 11:55:02;;;;;;;;;;;23.20;48.10;;;;;;5033806;28;19921;-59
2023/06/30 11:57:34;;;;;;;;;;;23.30;48.40;;;;;;5052929;28;20055;-58
2023/06/30 12:00:06;;;;;;;;;;;23.20;48.50;;;;;;5032026;28;19924;-58
2023/06/30 12:02:33;;;;;;;;;;;23.30;48.50;;;;;;5040695;28;20274;-59
2023/06/30 12:05:01;;;;;;;;;;;23.30;48.30;;;;;;5035346;28;19943;-58
2023/06/30 12:07:28;;;;;;;;;;;23.30;48.50;;;;;;5038203;28;19920;-58
2023/06/30 12:10:01;;;;;;;;;;;23.30;47.70;;;;;;5036340;28;20355;-58
2023/06/30 12:12:28;;;;;;;;;;;23.20;47.30;;;;;;5058872;28;19920;-58
2023/06/30 12:14:56;;;;;;;;;;;23.20;47.30;;;;;;5036627;28;20002;-58
2023/06/30 12:17:25;;;;;;;;;;;23.20;47.50;;;;;;5035296;28;19974;-58
2023/06/30 12:19:52;;;;;;;;;;;23.20;47.60;;;;;;5034755;28;19921;-59
2023/06/30 12:22:24;;;;;;;;;;;23.20;47.70;;;;;;5032535;28;19928;-58
2023/06/30 12:24:54;;;;;;;;;;;23.20;47.80;;;;;;5039092;28;19924;-58
2023/06/30 12:27:21;;;;;;;;;;;23.20;47.90;;;;;;5033506;28;20413;-59
2023/06/30 12:29:48;;;;;;;;;;;23.20;48.10;;;;;;5033154;28;19935;-59
2023/06/30 12:32:16;;;;;;;;;;;23.30;48.20;;;;;;5040679;28;19931;-58
2023/06/30 12:34:46;;;;;;;;;;;23.30;48.20;;;;;;5034969;28;19928;-59
2023/06/30 12:37:12;;;;;;;;;;;23.30;48.00;;;;;;5033517;28;20302;-59
2023/06/30 12:39:39;;;;;;;;;;;23.30;47.80;;;;;;5056300;28;19928;-59
2023/06/30 12:42:07;;;;;;;;;;;23.30;47.80;;;;;;5038182;28;19974;-56
2023/06/30 12:44:34;;;;;;;;;;;23.30;47.60;;;;;;5040352;28;20011;-59
2023/06/30 12:47:01;;;;;;;;;;;23.30;47.60;;;;;;5030842;28;19925;-59
2023/06/30 12:49:29;;;;;;;;;;;23.30;47.40;;;;;;5035108;28;19956;-57
2023/06/30 12:51:56;;;;;;;;;;;23.30;47.40;;;;;;5034459;28;19921;-58
2023/06/30 12:54:23;;;;;;;;;;;23.30;47.20;;;;;;5029778;28;19951;-59
2023/06/30 12:56:50;;;;;;;;;;;23.30;47.40;;;;;;5035539;28;19943;-60
2023/06/30 12:59:17;;;;;;;;;;;23.30;48.20;;;;;;5028407;28;19928;-58
2023/06/30 13:01:44;;;;;;;;;;;23.30;47.30;;;;;;5034206;28;20008;-58
2023/06/30 13:04:11;;;;;;;;;;;23.30;47.30;;;;;;5034210;28;19932;-58
2023/06/30 13:06:39;;;;;;;;;;;23.30;47.40;;;;;;5038258;28;20381;-59
2023/06/30 13:09:06;;;;;;;;;;;23.40;47.40;;;;;;5034149;28;19921;-58
2023/06/30 13:11:33;;;;;;;;;;;23.40;47.50;;;;;;5034387;28;19978;-58
2023/06/30 13:14:00;;;;;;;;;;;23.40;47.40;;;;;;5050491;28;19927;-59
2023/06/30 13:16:26;;;;;;;;;;;23.40;47.40;;;;;;5032923;28;20331;-58
2023/06/30 13:18:53;;;;;;;;;;;23.40;47.40;;;;;;5039770;28;19925;-58
2023/06/30 13:21:20;;;;;;;;;;;23.40;47.40;;;;;;5035729;28;19978;-59
2023/06/30 13:23:49;;;;;;;;;;;23.40;47.30;;;;;;5035033;28;19921;-59
2023/06/30 13:26:16;;;;;;;;;;;23.40;47.30;;;;;;5031970;28;19928;-59
2023/06/30 13:28:42;;;;;;;;;;;23.40;47.10;;;;;;5039050;28;19921;-59
2023/06/30 13:31:09;;;;;;;;;;;23.40;47.00;;;;;;5032266;28;19986;-60
2023/06/30 13:33:36;;;;;;;;;;;23.40;46.80;;;;;;5053009;28;19931;-60
2023/06/30 13:36:03;;;;;;;;;;;23.40;46.70;;;;;;5051267;28;20298;-59
2023/06/30 13:38:30;;;;;;;;;;;23.30;46.60;;;;;;5031692;28;19925;-58
2023/06/30 13:40:58;;;;;;;;;;;23.30;46.50;;;;;;5051043;28;19940;-60
2023/06/30 13:43:25;;;;;;;;;;;23.40;46.60;;;;;;5056508;28;20260;-58
2023/06/30 13:45:52;;;;;;;;;;;23.30;46.50;;;;;;5031237;28;19928;-59
2023/06/30 13:48:18;;;;;;;;;;;23.30;46.60;;;;;;5057967;28;19924;-59
2023/06/30 13:50:45;;;;;;;;;;;23.30;46.60;;;;;;5037889;28;19951;-59
2023/06/30 13:53:12;;;;;;;;;;;23.30;46.70;;;;;;5039413;28;20386;-58
2023/06/30 13:55:39;;;;;;;;;;;23.30;46.70;;;;;;5033425;28;19974;-58
2023/06/30 13:58:07;;;;;;;;;;;23.30;46.80;;;;;;5039379;28;19974;-59
2023/06/30 14:00:35;;;;;;;;;;;23.30;47.00;;;;;;5030535;28;19924;-58
2023/06/30 14:03:02;;;;;;;;;;;23.30;47.10;;;;;;5039244;28;19920;-59
2023/06/30 14:05:28;;;;;;;;;;;23.30;47.20;;;;;;5039183;28;19924;-58
2023/06/30 14:07:55;;;;;;;;;;;23.30;47.10;;;;;;5028921;28;19928;-58
2023/06/30 14:10:22;;;;;;;;;;;23.40;47.80;;;;;;5054741;28;19925;-58
2023/06/30 14:12:49;;;;;;;;;;;23.30;47.00;;;;;;5029329;28;19933;-58
2023/06/30 14:15:17;;;;;;;;;;;23.30;46.90;;;;;;5033214;28;19925;-58
2023/06/30 14:17:44;;;;;;;;;;;23.40;47.00;;;;;;5034983;28;19920;-58